sensor_id;sensor_type;location;lat;lon;timestamp;P1;durP1;ratioP1;P2;durP2;ratioP2
26698;SDS011;14313;50.892;13.756;2022-07-23T00:00:51;5.95;;;3.45;;
26698;SDS011;14313;50.892;13.756;2022-07-23T00:03:16;8.32;;;3.78;;
26698;SDS011;14313;50.892;13.756;2022-07-23T00:05:41;5.22;;;3.75;;
26698;SDS011;14313;50.892;13.756;2022-07-23T00:08:07;4.95;;;3.42;;
26698;SDS011;14313;50.892;13.756;2022-07-23T00:10:32;7.30;;;3.50;;
26698;SDS011;14313;50.892;13.756;2022-07-23T00:12:58;4.85;;;3.40;;
26698;SDS011;14313;50.892;13.756;2022-07-23T00:15:23;5.55;;;3.70;;
26698;SDS011;14313;50.892;13.756;2022-07-23T00:17:49;5.72;;;3.30;;
26698;SDS011;14313;50.892;13.756;2022-07-23T00:20:14;5.30;;;3.33;;
26698;SDS011;14313;50.892;13.756;2022-07-23T00:22:47;3.78;;;3.20;;
26698;SDS011;14313;50.892;13.756;2022-07-23T00:25:16;3.60;;;3.20;;
26698;SDS011;14313;50.892;13.756;2022-07-23T00:27:42;4.47;;;3.60;;
26698;SDS011;14313;50.892;13.756;2022-07-23T00:30:07;3.65;;;3.35;;
26698;SDS011;14313;50.892;13.756;2022-07-23T00:32:44;3.75;;;3.42;;
26698;SDS011;14313;50.892;13.756;2022-07-23T00:35:23;3.90;;;3.00;;
26698;SDS011;14313;50.892;13.756;2022-07-23T00:37:50;5.00;;;3.28;;
26698;SDS011;14313;50.892;13.756;2022-07-23T00:40:15;3.65;;;3.28;;
26698;SDS011;14313;50.892;13.756;2022-07-23T00:42:41;4.22;;;3.70;;
26698;SDS011;14313;50.892;13.756;2022-07-23T00:45:07;5.65;;;3.17;;
26698;SDS011;14313;50.892;13.756;2022-07-23T00:47:32;5.28;;;3.50;;
26698;SDS011;14313;50.892;13.756;2022-07-23T00:49:58;5.80;;;3.72;;
26698;SDS011;14313;50.892;13.756;2022-07-23T00:52:24;4.65;;;4.10;;
26698;SDS011;14313;50.892;13.756;2022-07-23T00:54:49;3.97;;;3.60;;
26698;SDS011;14313;50.892;13.756;2022-07-23T00:57:15;3.80;;;3.42;;
26698;SDS011;14313;50.892;13.756;2022-07-23T00:59:41;7.25;;;3.40;;
26698;SDS011;14313;50.892;13.756;2022-07-23T01:02:06;3.70;;;3.40;;
26698;SDS011;14313;50.892;13.756;2022-07-23T01:04:31;3.60;;;3.30;;
26698;SDS011;14313;50.892;13.756;2022-07-23T01:06:57;7.75;;;3.60;;
26698;SDS011;14313;50.892;13.756;2022-07-23T01:09:22;5.70;;;3.30;;
26698;SDS011;14313;50.892;13.756;2022-07-23T01:11:48;4.00;;;2.92;;
26698;SDS011;14313;50.892;13.756;2022-07-23T01:14:16;5.18;;;3.17;;
26698;SDS011;14313;50.892;13.756;2022-07-23T01:16:43;3.30;;;3.00;;
26698;SDS011;14313;50.892;13.756;2022-07-23T01:19:10;3.58;;;3.28;;
26698;SDS011;14313;50.892;13.756;2022-07-23T01:21:37;3.40;;;3.10;;
26698;SDS011;14313;50.892;13.756;2022-07-23T01:24:05;4.68;;;3.58;;
26698;SDS011;14313;50.892;13.756;2022-07-23T01:26:34;4.47;;;3.33;;
26698;SDS011;14313;50.892;13.756;2022-07-23T01:29:00;4.22;;;3.17;;
26698;SDS011;14313;50.892;13.756;2022-07-23T01:31:25;5.38;;;3.70;;
26698;SDS011;14313;50.892;13.756;2022-07-23T01:33:51;4.05;;;3.00;;
26698;SDS011;14313;50.892;13.756;2022-07-23T01:36:17;3.67;;;3.30;;
26698;SDS011;14313;50.892;13.756;2022-07-23T01:38:42;4.47;;;3.75;;
26698;SDS011;14313;50.892;13.756;2022-07-23T01:41:07;4.05;;;3.70;;
26698;SDS011;14313;50.892;13.756;2022-07-23T01:43:33;4.90;;;4.20;;
26698;SDS011;14313;50.892;13.756;2022-07-23T01:45:58;4.10;;;3.75;;
26698;SDS011;14313;50.892;13.756;2022-07-23T01:48:27;4.00;;;3.60;;
26698;SDS011;14313;50.892;13.756;2022-07-23T01:51:14;4.28;;;3.47;;
26698;SDS011;14313;50.892;13.756;2022-07-23T01:53:42;3.78;;;3.45;;
26698;SDS011;14313;50.892;13.756;2022-07-23T01:56:07;4.32;;;3.72;;
26698;SDS011;14313;50.892;13.756;2022-07-23T01:58:33;3.58;;;3.28;;
26698;SDS011;14313;50.892;13.756;2022-07-23T02:00:58;4.53;;;3.78;;
26698;SDS011;14313;50.892;13.756;2022-07-23T02:03:24;4.45;;;4.00;;
26698;SDS011;14313;50.892;13.756;2022-07-23T02:05:50;4.47;;;3.65;;
26698;SDS011;14313;50.892;13.756;2022-07-23T02:08:16;4.03;;;3.67;;
26698;SDS011;14313;50.892;13.756;2022-07-23T02:10:41;7.15;;;3.85;;
26698;SDS011;14313;50.892;13.756;2022-07-23T02:13:07;3.55;;;3.25;;
26698;SDS011;14313;50.892;13.756;2022-07-23T02:15:32;4.72;;;4.22;;
26698;SDS011;14313;50.892;13.756;2022-07-23T02:17:58;4.22;;;3.83;;
26698;SDS011;14313;50.892;13.756;2022-07-23T02:20:24;4.53;;;3.63;;
26698;SDS011;14313;50.892;13.756;2022-07-23T02:22:49;3.80;;;3.50;;
26698;SDS011;14313;50.892;13.756;2022-07-23T02:25:15;4.82;;;4.07;;
26698;SDS011;14313;50.892;13.756;2022-07-23T02:27:41;4.13;;;3.38;;
26698;SDS011;14313;50.892;13.756;2022-07-23T02:30:06;7.25;;;4.03;;
26698;SDS011;14313;50.892;13.756;2022-07-23T02:32:33;3.67;;;3.38;;
26698;SDS011;14313;50.892;13.756;2022-07-23T02:34:58;5.97;;;4.18;;
26698;SDS011;14313;50.892;13.756;2022-07-23T02:37:24;6.28;;;4.50;;
26698;SDS011;14313;50.892;13.756;2022-07-23T02:39:50;6.60;;;3.58;;
26698;SDS011;14313;50.892;13.756;2022-07-23T02:42:15;4.40;;;4.00;;
26698;SDS011;14313;50.892;13.756;2022-07-23T02:44:41;4.97;;;3.30;;
26698;SDS011;14313;50.892;13.756;2022-07-23T02:47:07;5.43;;;4.35;;
26698;SDS011;14313;50.892;13.756;2022-07-23T02:49:33;6.72;;;4.22;;
26698;SDS011;14313;50.892;13.756;2022-07-23T02:52:01;4.18;;;3.78;;
26698;SDS011;14313;50.892;13.756;2022-07-23T02:54:26;6.22;;;4.43;;
26698;SDS011;14313;50.892;13.756;2022-07-23T02:56:52;5.68;;;4.15;;
26698;SDS011;14313;50.892;13.756;2022-07-23T02:59:18;4.05;;;3.75;;
26698;SDS011;14313;50.892;13.756;2022-07-23T03:01:43;4.53;;;4.10;;
26698;SDS011;14313;50.892;13.756;2022-07-23T03:04:09;5.03;;;4.00;;
26698;SDS011;14313;50.892;13.756;2022-07-23T03:06:34;14.70;;;5.10;;
26698;SDS011;14313;50.892;13.756;2022-07-23T03:09:00;6.88;;;4.32;;
26698;SDS011;14313;50.892;13.756;2022-07-23T03:11:25;5.13;;;3.92;;
26698;SDS011;14313;50.892;13.756;2022-07-23T03:13:52;8.57;;;4.13;;
26698;SDS011;14313;50.892;13.756;2022-07-23T03:16:19;4.10;;;3.70;;
26698;SDS011;14313;50.892;13.756;2022-07-23T03:18:44;4.00;;;3.70;;
26698;SDS011;14313;50.892;13.756;2022-07-23T03:21:09;4.10;;;3.75;;
26698;SDS011;14313;50.892;13.756;2022-07-23T03:23:36;5.28;;;4.10;;
26698;SDS011;14313;50.892;13.756;2022-07-23T03:26:02;6.13;;;3.85;;
26698;SDS011;14313;50.892;13.756;2022-07-23T03:28:27;4.60;;;4.20;;
26698;SDS011;14313;50.892;13.756;2022-07-23T03:30:52;4.63;;;4.22;;
26698;SDS011;14313;50.892;13.756;2022-07-23T03:33:20;6.72;;;3.85;;
26698;SDS011;14313;50.892;13.756;2022-07-23T03:35:46;5.45;;;4.50;;
26698;SDS011;14313;50.892;13.756;2022-07-23T03:38:20;5.72;;;3.95;;
26698;SDS011;14313;50.892;13.756;2022-07-23T03:40:45;5.95;;;4.32;;
26698;SDS011;14313;50.892;13.756;2022-07-23T03:43:10;7.28;;;3.85;;
26698;SDS011;14313;50.892;13.756;2022-07-23T03:45:36;4.70;;;4.07;;
26698;SDS011;14313;50.892;13.756;2022-07-23T03:48:01;5.75;;;3.88;;
26698;SDS011;14313;50.892;13.756;2022-07-23T03:50:27;4.82;;;3.58;;
26698;SDS011;14313;50.892;13.756;2022-07-23T03:52:53;4.97;;;4.30;;
26698;SDS011;14313;50.892;13.756;2022-07-23T03:55:19;4.90;;;3.75;;
26698;SDS011;14313;50.892;13.756;2022-07-23T03:57:44;4.43;;;4.00;;
26698;SDS011;14313;50.892;13.756;2022-07-23T04:00:10;6.53;;;3.65;;
26698;SDS011;14313;50.892;13.756;2022-07-23T04:02:39;4.30;;;3.90;;
26698;SDS011;14313;50.892;13.756;2022-07-23T04:05:05;7.10;;;4.65;;
26698;SDS011;14313;50.892;13.756;2022-07-23T04:07:31;3.78;;;3.47;;
26698;SDS011;14313;50.892;13.756;2022-07-23T04:09:56;4.82;;;4.05;;
26698;SDS011;14313;50.892;13.756;2022-07-23T04:12:21;5.45;;;4.10;;
26698;SDS011;14313;50.892;13.756;2022-07-23T04:14:47;6.03;;;4.07;;
26698;SDS011;14313;50.892;13.756;2022-07-23T04:17:13;5.60;;;3.72;;
26698;SDS011;14313;50.892;13.756;2022-07-23T04:19:38;5.13;;;4.30;;
26698;SDS011;14313;50.892;13.756;2022-07-23T04:22:12;6.55;;;3.60;;
26698;SDS011;14313;50.892;13.756;2022-07-23T04:24:37;4.47;;;4.07;;
26698;SDS011;14313;50.892;13.756;2022-07-23T04:27:03;4.32;;;3.92;;
26698;SDS011;14313;50.892;13.756;2022-07-23T04:29:30;6.85;;;3.97;;
26698;SDS011;14313;50.892;13.756;2022-07-23T04:31:56;4.70;;;4.00;;
26698;SDS011;14313;50.892;13.756;2022-07-23T04:34:22;6.50;;;3.70;;
26698;SDS011;14313;50.892;13.756;2022-07-23T04:36:47;7.38;;;4.30;;
26698;SDS011;14313;50.892;13.756;2022-07-23T04:39:13;5.60;;;4.25;;
26698;SDS011;14313;50.892;13.756;2022-07-23T04:41:40;4.82;;;3.70;;
26698;SDS011;14313;50.892;13.756;2022-07-23T04:44:05;7.00;;;4.15;;
26698;SDS011;14313;50.892;13.756;2022-07-23T04:46:31;4.30;;;3.95;;
26698;SDS011;14313;50.892;13.756;2022-07-23T04:48:57;6.93;;;4.97;;
26698;SDS011;14313;50.892;13.756;2022-07-23T04:51:22;8.75;;;5.50;;
26698;SDS011;14313;50.892;13.756;2022-07-23T04:53:48;6.55;;;5.82;;
26698;SDS011;14313;50.892;13.756;2022-07-23T04:56:13;10.63;;;6.20;;
26698;SDS011;14313;50.892;13.756;2022-07-23T04:58:38;6.65;;;6.03;;
26698;SDS011;14313;50.892;13.756;2022-07-23T05:01:04;8.02;;;6.38;;
26698;SDS011;14313;50.892;13.756;2022-07-23T05:03:32;8.50;;;6.32;;
26698;SDS011;14313;50.892;13.756;2022-07-23T05:05:58;9.57;;;6.22;;
26698;SDS011;14313;50.892;13.756;2022-07-23T05:08:23;6.78;;;5.97;;
26698;SDS011;14313;50.892;13.756;2022-07-23T05:10:51;8.35;;;5.97;;
26698;SDS011;14313;50.892;13.756;2022-07-23T05:13:18;6.47;;;5.88;;
26698;SDS011;14313;50.892;13.756;2022-07-23T05:15:44;7.30;;;6.60;;
26698;SDS011;14313;50.892;13.756;2022-07-23T05:18:10;6.68;;;6.05;;
26698;SDS011;14313;50.892;13.756;2022-07-23T05:20:36;7.82;;;5.57;;
26698;SDS011;14313;50.892;13.756;2022-07-23T05:23:02;5.65;;;5.15;;
26698;SDS011;14313;50.892;13.756;2022-07-23T05:25:27;6.55;;;5.90;;
26698;SDS011;14313;50.892;13.756;2022-07-23T05:27:53;7.88;;;5.57;;
26698;SDS011;14313;50.892;13.756;2022-07-23T05:30:18;8.70;;;5.88;;
26698;SDS011;14313;50.892;13.756;2022-07-23T05:32:46;6.78;;;6.13;;
26698;SDS011;14313;50.892;13.756;2022-07-23T05:35:15;5.93;;;5.32;;
26698;SDS011;14313;50.892;13.756;2022-07-23T05:37:46;6.55;;;5.43;;
26698;SDS011;14313;50.892;13.756;2022-07-23T05:40:11;5.93;;;5.35;;
26698;SDS011;14313;50.892;13.756;2022-07-23T05:42:38;7.28;;;6.57;;
26698;SDS011;14313;50.892;13.756;2022-07-23T05:45:04;9.13;;;6.10;;
26698;SDS011;14313;50.892;13.756;2022-07-23T05:47:43;6.63;;;5.93;;
26698;SDS011;14313;50.892;13.756;2022-07-23T05:50:11;7.15;;;5.75;;
26698;SDS011;14313;50.892;13.756;2022-07-23T05:52:44;10.30;;;5.57;;
26698;SDS011;14313;50.892;13.756;2022-07-23T05:55:36;7.93;;;5.95;;
26698;SDS011;14313;50.892;13.756;2022-07-23T05:58:01;7.80;;;5.57;;
26698;SDS011;14313;50.892;13.756;2022-07-23T06:00:27;8.50;;;5.90;;
26698;SDS011;14313;50.892;13.756;2022-07-23T06:02:55;6.78;;;5.38;;
26698;SDS011;14313;50.892;13.756;2022-07-23T06:05:21;6.68;;;5.85;;
26698;SDS011;14313;50.892;13.756;2022-07-23T06:07:46;8.98;;;6.47;;
26698;SDS011;14313;50.892;13.756;2022-07-23T06:10:13;7.25;;;6.25;;
26698;SDS011;14313;50.892;13.756;2022-07-23T06:12:39;6.82;;;5.50;;
26698;SDS011;14313;50.892;13.756;2022-07-23T06:15:04;6.65;;;5.88;;
26698;SDS011;14313;50.892;13.756;2022-07-23T06:17:31;12.02;;;7.22;;
26698;SDS011;14313;50.892;13.756;2022-07-23T06:19:56;10.88;;;8.38;;
26698;SDS011;14313;50.892;13.756;2022-07-23T06:22:22;11.40;;;7.85;;
26698;SDS011;14313;50.892;13.756;2022-07-23T06:24:48;10.88;;;7.00;;
26698;SDS011;14313;50.892;13.756;2022-07-23T06:27:13;7.20;;;6.50;;
26698;SDS011;14313;50.892;13.756;2022-07-23T06:29:39;9.65;;;7.57;;
26698;SDS011;14313;50.892;13.756;2022-07-23T06:32:06;8.20;;;7.40;;
26698;SDS011;14313;50.892;13.756;2022-07-23T06:34:32;9.48;;;8.18;;
26698;SDS011;14313;50.892;13.756;2022-07-23T06:36:57;10.10;;;9.02;;
26698;SDS011;14313;50.892;13.756;2022-07-23T06:39:25;13.80;;;8.57;;
26698;SDS011;14313;50.892;13.756;2022-07-23T06:41:50;10.35;;;9.30;;
26698;SDS011;14313;50.892;13.756;2022-07-23T06:44:16;10.77;;;8.77;;
26698;SDS011;14313;50.892;13.756;2022-07-23T06:46:42;9.75;;;8.73;;
26698;SDS011;14313;50.892;13.756;2022-07-23T06:49:07;9.57;;;8.27;;
26698;SDS011;14313;50.892;13.756;2022-07-23T06:51:33;13.57;;;8.85;;
26698;SDS011;14313;50.892;13.756;2022-07-23T06:54:00;11.18;;;8.63;;
26698;SDS011;14313;50.892;13.756;2022-07-23T06:56:25;10.25;;;8.88;;
26698;SDS011;14313;50.892;13.756;2022-07-23T06:58:51;11.80;;;8.77;;
26698;SDS011;14313;50.892;13.756;2022-07-23T07:01:16;12.75;;;8.95;;
26698;SDS011;14313;50.892;13.756;2022-07-23T07:03:42;12.13;;;8.85;;
26698;SDS011;14313;50.892;13.756;2022-07-23T07:06:07;11.70;;;8.40;;
26698;SDS011;14313;50.892;13.756;2022-07-23T07:08:33;12.98;;;8.85;;
26698;SDS011;14313;50.892;13.756;2022-07-23T07:10:58;12.82;;;10.50;;
26698;SDS011;14313;50.892;13.756;2022-07-23T07:13:23;18.58;;;10.13;;
26698;SDS011;14313;50.892;13.756;2022-07-23T07:15:49;15.65;;;9.32;;
26698;SDS011;14313;50.892;13.756;2022-07-23T07:18:14;10.25;;;9.23;;
26698;SDS011;14313;50.892;13.756;2022-07-23T07:20:39;13.02;;;9.10;;
26698;SDS011;14313;50.892;13.756;2022-07-23T07:23:05;11.82;;;9.32;;
26698;SDS011;14313;50.892;13.756;2022-07-23T07:25:30;10.57;;;8.93;;
26698;SDS011;14313;50.892;13.756;2022-07-23T07:27:55;11.23;;;9.65;;
26698;SDS011;14313;50.892;13.756;2022-07-23T07:30:21;14.25;;;10.45;;
26698;SDS011;14313;50.892;13.756;2022-07-23T07:32:46;12.18;;;9.05;;
26698;SDS011;14313;50.892;13.756;2022-07-23T07:35:12;9.77;;;8.70;;
26698;SDS011;14313;50.892;13.756;2022-07-23T07:37:37;10.45;;;8.60;;
26698;SDS011;14313;50.892;13.756;2022-07-23T07:40:02;8.52;;;7.63;;
26698;SDS011;14313;50.892;13.756;2022-07-23T07:42:28;10.48;;;8.63;;
26698;SDS011;14313;50.892;13.756;2022-07-23T07:44:53;13.30;;;10.05;;
26698;SDS011;14313;50.892;13.756;2022-07-23T07:47:18;9.90;;;8.68;;
26698;SDS011;14313;50.892;13.756;2022-07-23T07:49:44;11.32;;;8.30;;
26698;SDS011;14313;50.892;13.756;2022-07-23T07:52:09;11.77;;;9.50;;
26698;SDS011;14313;50.892;13.756;2022-07-23T07:54:35;10.63;;;9.52;;
26698;SDS011;14313;50.892;13.756;2022-07-23T07:57:01;14.57;;;9.18;;
26698;SDS011;14313;50.892;13.756;2022-07-23T07:59:26;11.40;;;8.60;;
26698;SDS011;14313;50.892;13.756;2022-07-23T08:01:51;10.57;;;7.70;;
26698;SDS011;14313;50.892;13.756;2022-07-23T08:04:17;10.23;;;8.48;;
26698;SDS011;14313;50.892;13.756;2022-07-23T08:06:42;8.20;;;7.32;;
26698;SDS011;14313;50.892;13.756;2022-07-23T08:09:07;11.18;;;7.68;;
26698;SDS011;14313;50.892;13.756;2022-07-23T08:11:33;8.32;;;7.50;;
26698;SDS011;14313;50.892;13.756;2022-07-23T08:13:58;9.45;;;7.10;;
26698;SDS011;14313;50.892;13.756;2022-07-23T08:16:23;10.82;;;7.32;;
26698;SDS011;14313;50.892;13.756;2022-07-23T08:18:49;8.82;;;7.05;;
26698;SDS011;14313;50.892;13.756;2022-07-23T08:21:14;11.00;;;7.72;;
26698;SDS011;14313;50.892;13.756;2022-07-23T08:23:39;9.45;;;8.15;;
26698;SDS011;14313;50.892;13.756;2022-07-23T08:26:05;11.68;;;8.02;;
26698;SDS011;14313;50.892;13.756;2022-07-23T08:28:30;10.55;;;7.15;;
26698;SDS011;14313;50.892;13.756;2022-07-23T08:30:58;8.15;;;7.25;;
26698;SDS011;14313;50.892;13.756;2022-07-23T08:33:24;14.73;;;7.88;;
26698;SDS011;14313;50.892;13.756;2022-07-23T08:35:49;10.70;;;7.63;;
26698;SDS011;14313;50.892;13.756;2022-07-23T08:38:18;9.02;;;7.10;;
26698;SDS011;14313;50.892;13.756;2022-07-23T08:40:45;10.52;;;6.85;;
26698;SDS011;14313;50.892;13.756;2022-07-23T08:43:14;10.10;;;7.32;;
26698;SDS011;14313;50.892;13.756;2022-07-23T08:45:45;9.63;;;7.43;;
26698;SDS011;14313;50.892;13.756;2022-07-23T08:48:14;9.57;;;7.32;;
26698;SDS011;14313;50.892;13.756;2022-07-23T08:50:42;8.93;;;6.55;;
26698;SDS011;14313;50.892;13.756;2022-07-23T08:53:08;9.00;;;6.57;;
26698;SDS011;14313;50.892;13.756;2022-07-23T08:55:34;8.70;;;7.20;;
26698;SDS011;14313;50.892;13.756;2022-07-23T08:58:00;8.85;;;7.13;;
26698;SDS011;14313;50.892;13.756;2022-07-23T09:00:26;9.85;;;7.40;;
26698;SDS011;14313;50.892;13.756;2022-07-23T09:02:51;10.82;;;5.90;;
26698;SDS011;14313;50.892;13.756;2022-07-23T09:05:17;6.93;;;6.28;;
26698;SDS011;14313;50.892;13.756;2022-07-23T09:10:49;6.50;;;5.75;;
26698;SDS011;14313;50.892;13.756;2022-07-23T09:13:22;10.25;;;6.78;;
26698;SDS011;14313;50.892;13.756;2022-07-23T09:15:48;7.47;;;5.30;;
26698;SDS011;14313;50.892;13.756;2022-07-23T09:18:15;7.60;;;5.75;;
26698;SDS011;14313;50.892;13.756;2022-07-23T09:20:40;7.40;;;5.30;;
26698;SDS011;14313;50.892;13.756;2022-07-23T09:23:06;6.25;;;5.63;;
26698;SDS011;14313;50.892;13.756;2022-07-23T09:25:31;7.30;;;6.28;;
26698;SDS011;14313;50.892;13.756;2022-07-23T09:27:57;7.13;;;5.85;;
26698;SDS011;14313;50.892;13.756;2022-07-23T09:30:27;7.63;;;5.75;;
26698;SDS011;14313;50.892;13.756;2022-07-23T09:33:08;9.48;;;5.38;;
26698;SDS011;14313;50.892;13.756;2022-07-23T09:35:50;13.52;;;5.05;;
26698;SDS011;14313;50.892;13.756;2022-07-23T09:38:20;9.02;;;5.47;;
26698;SDS011;14313;50.892;13.756;2022-07-23T09:40:46;10.30;;;5.38;;
26698;SDS011;14313;50.892;13.756;2022-07-23T09:43:30;7.60;;;5.82;;
26698;SDS011;14313;50.892;13.756;2022-07-23T09:46:16;7.63;;;5.97;;
26698;SDS011;14313;50.892;13.756;2022-07-23T09:48:49;6.72;;;5.07;;
26698;SDS011;14313;50.892;13.756;2022-07-23T09:51:16;8.85;;;5.18;;
26698;SDS011;14313;50.892;13.756;2022-07-23T09:53:52;10.48;;;5.20;;
26698;SDS011;14313;50.892;13.756;2022-07-23T09:56:17;10.57;;;5.65;;
26698;SDS011;14313;50.892;13.756;2022-07-23T09:58:45;6.53;;;5.13;;
26698;SDS011;14313;50.892;13.756;2022-07-23T10:01:14;10.45;;;5.78;;
26698;SDS011;14313;50.892;13.756;2022-07-23T10:03:40;10.98;;;4.53;;
26698;SDS011;14313;50.892;13.756;2022-07-23T10:06:30;9.20;;;5.13;;
26698;SDS011;14313;50.892;13.756;2022-07-23T10:09:26;6.32;;;5.00;;
26698;SDS011;14313;50.892;13.756;2022-07-23T10:12:12;6.55;;;4.95;;
26698;SDS011;14313;50.892;13.756;2022-07-23T10:14:56;6.55;;;4.38;;
26698;SDS011;14313;50.892;13.756;2022-07-23T10:17:22;11.68;;;4.75;;
26698;SDS011;14313;50.892;13.756;2022-07-23T10:19:48;7.05;;;4.43;;
26698;SDS011;14313;50.892;13.756;2022-07-23T10:22:14;5.55;;;4.70;;
26698;SDS011;14313;50.892;13.756;2022-07-23T10:24:49;4.90;;;4.40;;
26698;SDS011;14313;50.892;13.756;2022-07-23T10:33:30;5.63;;;5.10;;
26698;SDS011;14313;50.892;13.756;2022-07-23T10:36:23;4.70;;;4.25;;
26698;SDS011;14313;50.892;13.756;2022-07-23T10:39:05;4.80;;;4.13;;
26698;SDS011;14313;50.892;13.756;2022-07-23T10:41:40;7.85;;;4.93;;
26698;SDS011;14313;50.892;13.756;2022-07-23T10:44:07;5.18;;;4.68;;
26698;SDS011;14313;50.892;13.756;2022-07-23T10:49:41;12.23;;;5.22;;
26698;SDS011;14313;50.892;13.756;2022-07-23T10:54:38;6.32;;;4.63;;
26698;SDS011;14313;50.892;13.756;2022-07-23T10:57:07;9.13;;;5.10;;
26698;SDS011;14313;50.892;13.756;2022-07-23T11:02:33;5.18;;;4.63;;
26698;SDS011;14313;50.892;13.756;2022-07-23T11:05:09;4.85;;;4.45;;
26698;SDS011;14313;50.892;13.756;2022-07-23T11:07:37;8.43;;;4.38;;
26698;SDS011;14313;50.892;13.756;2022-07-23T11:10:36;10.20;;;4.85;;
26698;SDS011;14313;50.892;13.756;2022-07-23T11:16:03;5.95;;;4.30;;
26698;SDS011;14313;50.892;13.756;2022-07-23T11:31:53;16.05;;;4.30;;
26698;SDS011;14313;50.892;13.756;2022-07-23T11:34:38;8.02;;;3.92;;
26698;SDS011;14313;50.892;13.756;2022-07-23T11:37:12;6.88;;;4.38;;
26698;SDS011;14313;50.892;13.756;2022-07-23T11:39:55;5.28;;;4.40;;
26698;SDS011;14313;50.892;13.756;2022-07-23T11:42:22;6.00;;;4.10;;
26698;SDS011;14313;50.892;13.756;2022-07-23T11:44:49;4.93;;;3.92;;
26698;SDS011;14313;50.892;13.756;2022-07-23T11:47:15;6.35;;;4.40;;
26698;SDS011;14313;50.892;13.756;2022-07-23T11:49:57;4.88;;;4.32;;
26698;SDS011;14313;50.892;13.756;2022-07-23T11:52:25;6.78;;;3.95;;
26698;SDS011;14313;50.892;13.756;2022-07-23T11:57:28;5.82;;;5.32;;
26698;SDS011;14313;50.892;13.756;2022-07-23T11:59:58;6.38;;;4.50;;
26698;SDS011;14313;50.892;13.756;2022-07-23T12:02:37;5.72;;;4.57;;
26698;SDS011;14313;50.892;13.756;2022-07-23T12:05:07;6.80;;;4.47;;
26698;SDS011;14313;50.892;13.756;2022-07-23T12:07:36;5.03;;;4.38;;
26698;SDS011;14313;50.892;13.756;2022-07-23T12:10:05;7.70;;;4.45;;
26698;SDS011;14313;50.892;13.756;2022-07-23T12:12:36;8.00;;;4.78;;
26698;SDS011;14313;50.892;13.756;2022-07-23T12:15:03;12.85;;;4.80;;
26698;SDS011;14313;50.892;13.756;2022-07-23T12:17:31;9.98;;;4.88;;
26698;SDS011;14313;50.892;13.756;2022-07-23T12:19:58;14.88;;;4.85;;
26698;SDS011;14313;50.892;13.756;2022-07-23T12:22:25;8.00;;;5.10;;
26698;SDS011;14313;50.892;13.756;2022-07-23T12:25:02;6.13;;;4.63;;
26698;SDS011;14313;50.892;13.756;2022-07-23T12:27:30;7.03;;;4.03;;
26698;SDS011;14313;50.892;13.756;2022-07-23T12:29:56;8.55;;;4.05;;
26698;SDS011;14313;50.892;13.756;2022-07-23T12:32:28;7.25;;;4.20;;
26698;SDS011;14313;50.892;13.756;2022-07-23T12:35:06;10.30;;;4.72;;
26698;SDS011;14313;50.892;13.756;2022-07-23T12:37:37;14.15;;;4.22;;
26698;SDS011;14313;50.892;13.756;2022-07-23T12:40:23;10.70;;;4.55;;
26698;SDS011;14313;50.892;13.756;2022-07-23T12:42:59;7.45;;;4.18;;
26698;SDS011;14313;50.892;13.756;2022-07-23T12:45:28;10.10;;;4.60;;
26698;SDS011;14313;50.892;13.756;2022-07-23T12:48:08;8.95;;;4.07;;
26698;SDS011;14313;50.892;13.756;2022-07-23T12:50:54;5.53;;;4.20;;
26698;SDS011;14313;50.892;13.756;2022-07-23T12:53:21;5.22;;;4.72;;
26698;SDS011;14313;50.892;13.756;2022-07-23T12:56:00;7.95;;;4.50;;
26698;SDS011;14313;50.892;13.756;2022-07-23T12:58:41;8.73;;;4.53;;
26698;SDS011;14313;50.892;13.756;2022-07-23T13:06:44;8.35;;;4.90;;
26698;SDS011;14313;50.892;13.756;2022-07-23T13:09:16;5.88;;;5.35;;
26698;SDS011;14313;50.892;13.756;2022-07-23T13:11:43;11.93;;;5.88;;
26698;SDS011;14313;50.892;13.756;2022-07-23T13:14:10;9.32;;;5.82;;
26698;SDS011;14313;50.892;13.756;2022-07-23T13:16:36;8.27;;;5.55;;
26698;SDS011;14313;50.892;13.756;2022-07-23T13:19:01;11.60;;;5.68;;
26698;SDS011;14313;50.892;13.756;2022-07-23T13:21:28;8.85;;;6.22;;
26698;SDS011;14313;50.892;13.756;2022-07-23T13:23:54;9.05;;;5.60;;
26698;SDS011;14313;50.892;13.756;2022-07-23T13:26:20;24.30;;;6.93;;
26698;SDS011;14313;50.892;13.756;2022-07-23T13:28:45;12.93;;;5.95;;
26698;SDS011;14313;50.892;13.756;2022-07-23T13:31:11;9.43;;;5.03;;
26698;SDS011;14313;50.892;13.756;2022-07-23T13:33:36;10.90;;;5.18;;
26698;SDS011;14313;50.892;13.756;2022-07-23T13:36:02;6.93;;;4.93;;
26698;SDS011;14313;50.892;13.756;2022-07-23T13:38:28;9.05;;;5.22;;
26698;SDS011;14313;50.892;13.756;2022-07-23T13:40:54;9.82;;;5.40;;
26698;SDS011;14313;50.892;13.756;2022-07-23T13:43:21;8.57;;;5.68;;
26698;SDS011;14313;50.892;13.756;2022-07-23T13:45:48;8.60;;;5.60;;
26698;SDS011;14313;50.892;13.756;2022-07-23T13:48:14;7.70;;;5.60;;
26698;SDS011;14313;50.892;13.756;2022-07-23T13:50:40;5.93;;;4.97;;
26698;SDS011;14313;50.892;13.756;2022-07-23T13:53:10;6.15;;;5.55;;
26698;SDS011;14313;50.892;13.756;2022-07-23T13:55:42;7.70;;;5.93;;
26698;SDS011;14313;50.892;13.756;2022-07-23T13:58:08;8.23;;;6.72;;
26698;SDS011;14313;50.892;13.756;2022-07-23T14:00:34;8.35;;;6.13;;
26698;SDS011;14313;50.892;13.756;2022-07-23T14:03:02;12.95;;;5.75;;
26698;SDS011;14313;50.892;13.756;2022-07-23T14:05:27;6.65;;;5.65;;
26698;SDS011;14313;50.892;13.756;2022-07-23T14:07:53;10.55;;;6.20;;
26698;SDS011;14313;50.892;13.756;2022-07-23T14:10:19;10.07;;;5.90;;
26698;SDS011;14313;50.892;13.756;2022-07-23T14:12:46;7.13;;;6.00;;
26698;SDS011;14313;50.892;13.756;2022-07-23T14:15:13;12.48;;;7.10;;
26698;SDS011;14313;50.892;13.756;2022-07-23T14:17:39;9.45;;;6.65;;
26698;SDS011;14313;50.892;13.756;2022-07-23T14:20:08;7.35;;;6.22;;
26698;SDS011;14313;50.892;13.756;2022-07-23T14:22:34;7.82;;;5.88;;
26698;SDS011;14313;50.892;13.756;2022-07-23T14:25:00;9.85;;;6.35;;
26698;SDS011;14313;50.892;13.756;2022-07-23T14:27:25;8.60;;;7.10;;
26698;SDS011;14313;50.892;13.756;2022-07-23T14:29:52;9.93;;;6.57;;
26698;SDS011;14313;50.892;13.756;2022-07-23T14:32:18;9.50;;;6.72;;
26698;SDS011;14313;50.892;13.756;2022-07-23T14:34:43;12.52;;;7.22;;
26698;SDS011;14313;50.892;13.756;2022-07-23T14:37:09;9.90;;;6.22;;
26698;SDS011;14313;50.892;13.756;2022-07-23T14:39:36;10.60;;;6.85;;
26698;SDS011;14313;50.892;13.756;2022-07-23T14:42:01;7.45;;;6.65;;
26698;SDS011;14313;50.892;13.756;2022-07-23T14:44:27;8.45;;;6.63;;
26698;SDS011;14313;50.892;13.756;2022-07-23T14:46:53;8.13;;;6.22;;
26698;SDS011;14313;50.892;13.756;2022-07-23T14:49:18;7.13;;;6.40;;
26698;SDS011;14313;50.892;13.756;2022-07-23T14:51:43;8.73;;;6.70;;
26698;SDS011;14313;50.892;13.756;2022-07-23T14:54:09;6.88;;;6.25;;
26698;SDS011;14313;50.892;13.756;2022-07-23T14:56:34;10.15;;;6.82;;
26698;SDS011;14313;50.892;13.756;2022-07-23T14:59:01;8.00;;;6.20;;
26698;SDS011;14313;50.892;13.756;2022-07-23T15:01:28;12.77;;;6.82;;
26698;SDS011;14313;50.892;13.756;2022-07-23T15:03:53;8.52;;;6.90;;
26698;SDS011;14313;50.892;13.756;2022-07-23T15:06:18;18.33;;;7.22;;
26698;SDS011;14313;50.892;13.756;2022-07-23T15:08:44;9.70;;;6.25;;
26698;SDS011;14313;50.892;13.756;2022-07-23T15:11:09;9.68;;;6.75;;
26698;SDS011;14313;50.892;13.756;2022-07-23T15:13:35;10.45;;;6.70;;
26698;SDS011;14313;50.892;13.756;2022-07-23T15:16:01;8.10;;;7.00;;